createdAt,value
2018-03-27T00:01:56.372Z,19.97
2018-03-27T00:04:23.849Z,20.70
2018-03-27T00:06:51.305Z,18.67
2018-03-27T00:09:18.773Z,19.93
2018-03-27T00:11:46.218Z,19.20
2018-03-27T00:14:13.682Z,18.60
2018-03-27T00:16:41.904Z,19.40
2018-03-27T00:19:09.368Z,20.53
2018-03-27T00:21:36.844Z,19.50
2018-03-27T00:24:05.221Z,20.87
2018-03-27T00:26:32.660Z,21.00
2018-03-27T00:29:12.896Z,18.40
2018-03-27T00:31:52.121Z,19.87
2018-03-27T00:34:31.434Z,18.50
2018-03-27T00:37:11.561Z,22.30
2018-03-27T00:39:50.925Z,20.50
2018-03-27T00:42:28.813Z,20.87
2018-03-27T00:44:56.286Z,18.80
2018-03-27T00:47:23.745Z,21.13
2018-03-27T00:49:51.229Z,21.70
2018-03-27T00:52:18.703Z,21.60
2018-03-27T00:54:46.182Z,21.77
2018-03-27T00:57:13.647Z,21.90
2018-03-27T00:59:41.116Z,21.17
2018-03-27T01:02:08.574Z,21.13
2018-03-27T01:04:36.037Z,23.00
2018-03-27T01:07:03.502Z,24.40
2018-03-27T01:09:30.949Z,20.77
2018-03-27T01:11:58.570Z,22.37
2018-03-27T01:14:26.030Z,21.07
2018-03-27T01:16:54.456Z,20.80
2018-03-27T01:19:22.684Z,23.50
2018-03-27T01:21:50.152Z,23.50
2018-03-27T01:24:17.700Z,20.17
2018-03-27T01:26:45.148Z,22.80
2018-03-27T01:29:13.712Z,19.63
2018-03-27T01:31:41.192Z,20.67
2018-03-27T01:34:08.641Z,22.47
2018-03-27T01:36:36.110Z,22.00
2018-03-27T01:39:03.564Z,20.30
2018-03-27T01:41:31.024Z,23.50
2018-03-27T01:43:58.480Z,21.07
2018-03-27T01:46:26.126Z,23.07
2018-03-27T01:48:53.574Z,22.97
2018-03-27T01:53:54.862Z,23.47
2018-03-27T01:56:22.745Z,25.43
2018-03-27T01:58:50.222Z,27.10
2018-03-27T02:01:17.689Z,25.07
2018-03-27T02:03:45.693Z,28.97
2018-03-27T02:06:13.925Z,29.97
2018-03-27T02:08:41.393Z,29.10
2018-03-27T02:11:14.914Z,28.20
2018-03-27T02:13:48.114Z,27.03
2018-03-27T02:16:21.473Z,26.27
2018-03-27T02:18:54.489Z,27.13
2018-03-27T02:21:24.424Z,30.23
2018-03-27T02:26:56.649Z,27.90
2018-03-27T02:29:24.779Z,26.83
2018-03-27T02:31:52.233Z,24.10
2018-03-27T02:34:19.695Z,25.47
2018-03-27T02:36:47.157Z,24.90
2018-03-27T02:39:14.608Z,23.20
2018-03-27T02:41:42.112Z,26.00
2018-03-27T02:44:09.596Z,24.43
2018-03-27T02:46:37.068Z,21.73
2018-03-27T02:49:04.574Z,19.73
2018-03-27T02:51:32.805Z,20.77
2018-03-27T02:54:00.275Z,19.10
2018-03-27T02:56:27.856Z,20.17
2018-03-27T02:58:55.338Z,19.63
2018-03-27T03:01:22.781Z,21.07
2018-03-27T03:03:50.267Z,20.97
2018-03-27T03:06:17.744Z,18.40
2018-03-27T03:08:45.236Z,20.83
2018-03-27T03:11:12.687Z,25.83
2018-03-27T03:13:40.147Z,21.53
2018-03-27T03:16:07.637Z,24.27
2018-03-27T03:18:35.871Z,22.00
2018-03-27T03:21:03.334Z,24.80
2018-03-27T03:23:30.813Z,23.60
2018-03-27T03:25:58.286Z,25.87
2018-03-27T03:28:26.089Z,25.97
2018-03-27T03:30:53.561Z,25.83
2018-03-27T03:33:21.017Z,25.93
2018-03-27T03:35:48.500Z,25.43
2018-03-27T03:38:15.963Z,26.53
2018-03-27T03:40:43.429Z,27.17
2018-03-27T03:43:10.923Z,28.83
2018-03-27T03:45:39.147Z,26.43
2018-03-27T03:48:06.729Z,26.77
2018-03-27T03:50:34.188Z,28.23
2018-03-27T03:53:01.687Z,27.73
2018-03-27T03:55:29.125Z,26.13
2018-03-27T03:57:56.597Z,24.77
2018-03-27T04:00:24.065Z,25.37
2018-03-27T04:02:51.521Z,25.40
2018-03-27T04:05:19.746Z,22.20
2018-03-27T04:07:47.228Z,24.63
2018-03-27T04:10:14.801Z,27.37
2018-03-27T04:12:42.265Z,26.80
2018-03-27T04:15:09.707Z,32.30
2018-03-27T04:17:37.181Z,29.40
2018-03-27T04:20:05.396Z,25.40
2018-03-27T04:22:32.956Z,27.60
2018-03-27T04:25:00.428Z,23.40
2018-03-27T04:27:27.874Z,25.93
2018-03-27T04:29:56.119Z,22.20
2018-03-27T04:34:46.112Z,24.47
2018-03-27T04:37:13.621Z,26.50
2018-03-27T04:39:41.097Z,26.93
2018-03-27T04:42:09.334Z,25.67
2018-03-27T04:44:36.798Z,28.90
2018-03-27T04:47:04.273Z,27.10
2018-03-27T04:49:31.745Z,32.47
2018-03-27T04:51:59.353Z,29.00
2018-03-27T04:54:26.824Z,30.10
2018-03-27T04:56:54.677Z,31.37
2018-03-27T04:59:22.141Z,30.93
2018-03-27T05:01:49.631Z,29.07
2018-03-27T05:04:17.113Z,35.70
2018-03-27T05:06:44.553Z,29.90
2018-03-27T05:09:12.175Z,33.50
2018-03-27T05:11:40.390Z,31.57
2018-03-27T05:14:07.841Z,32.80
2018-03-27T05:16:35.410Z,33.30
2018-03-27T05:19:02.852Z,32.57
2018-03-27T05:21:30.328Z,35.40
2018-03-27T05:23:58.564Z,31.47
2018-03-27T05:26:26.024Z,32.40
2018-03-27T05:28:53.482Z,33.53
2018-03-27T05:31:21.738Z,34.10
2018-03-27T05:33:49.198Z,33.87
2018-03-27T05:36:16.660Z,33.60
2018-03-27T05:38:44.181Z,33.73
2018-03-27T05:41:11.597Z,36.60
2018-03-27T05:43:39.052Z,33.90
2018-03-27T05:46:06.505Z,36.67
2018-03-27T05:48:34.043Z,36.23
2018-03-27T05:51:02.259Z,36.57
2018-03-27T05:53:29.730Z,38.30
2018-03-27T05:55:57.252Z,33.23
2018-03-27T05:58:25.399Z,37.03
2018-03-27T06:00:52.850Z,39.30
2018-03-27T06:03:20.318Z,41.00
2018-03-27T06:05:47.784Z,38.57
2018-03-27T06:08:15.236Z,39.10
2018-03-27T06:10:43.452Z,39.90
2018-03-27T06:13:11.130Z,40.00
2018-03-27T06:15:38.619Z,44.27
2018-03-27T06:18:06.062Z,39.70
2018-03-27T06:20:33.524Z,41.10
2018-03-27T06:23:00.997Z,43.80
2018-03-27T06:25:28.797Z,38.73
2018-03-27T06:27:56.249Z,40.03
2018-03-27T06:30:23.718Z,40.80
2018-03-27T06:32:51.489Z,42.60
2018-03-27T06:35:18.965Z,42.17
2018-03-27T06:37:47.153Z,43.50
2018-03-27T06:40:14.631Z,43.33
2018-03-27T06:42:42.105Z,44.20
2018-03-27T06:45:09.561Z,43.47
2018-03-27T06:47:37.065Z,43.20
2018-03-27T06:50:05.242Z,41.37
2018-03-27T06:52:32.704Z,41.37
2018-03-27T06:55:00.174Z,42.00
2018-03-27T06:57:27.634Z,45.57
2018-03-27T06:59:55.121Z,42.57
2018-03-27T07:02:22.592Z,44.43
2018-03-27T07:04:50.094Z,42.80
2018-03-27T07:07:17.514Z,45.00
2018-03-27T07:09:44.981Z,44.80
2018-03-27T07:12:12.428Z,44.70
2018-03-27T07:14:40.653Z,45.37
2018-03-27T07:17:08.104Z,43.47
2018-03-27T07:19:35.586Z,44.47
2018-03-27T07:22:03.182Z,43.73
2018-03-27T07:24:30.632Z,42.80
2018-03-27T07:26:58.161Z,47.47
2018-03-27T07:29:25.548Z,44.07
2018-03-27T07:31:53.016Z,42.60
2018-03-27T07:34:20.533Z,43.33
2018-03-27T07:36:47.986Z,44.27
2018-03-27T07:39:15.449Z,46.00
2018-03-27T07:41:42.945Z,46.43
2018-03-27T07:44:10.395Z,46.90
2018-03-27T07:46:37.850Z,47.77
2018-03-27T07:49:05.321Z,47.90
2018-03-27T07:51:32.774Z,50.20
2018-03-27T07:54:00.234Z,51.23
2018-03-27T07:56:27.724Z,50.10
2018-03-27T07:58:55.199Z,47.87
2018-03-27T08:01:23.113Z,49.60
2018-03-27T08:03:50.565Z,48.90
2018-03-27T08:06:18.032Z,48.43
2018-03-27T08:08:45.497Z,47.90
2018-03-27T08:11:13.015Z,46.23
2018-03-27T08:13:40.425Z,48.00
2018-03-27T08:16:08.327Z,42.17
2018-03-27T08:18:35.807Z,40.20
2018-03-27T08:21:03.257Z,38.70
2018-03-27T08:23:30.732Z,39.93
2018-03-27T08:25:58.216Z,42.47
2018-03-27T08:28:25.686Z,40.47
2018-03-27T08:30:53.154Z,41.20
2018-03-27T08:33:20.635Z,37.37
2018-03-27T08:35:48.106Z,38.07
2018-03-27T08:38:15.572Z,36.30
2018-03-27T08:40:43.083Z,39.70
2018-03-27T08:43:11.296Z,38.67
2018-03-27T08:45:38.764Z,37.07
2018-03-27T08:48:06.257Z,36.13
2018-03-27T08:50:33.705Z,32.73
2018-03-27T08:53:01.802Z,34.00
2018-03-27T08:55:30.028Z,35.97
2018-03-27T08:57:58.248Z,38.07
2018-03-27T09:00:25.790Z,35.97
2018-03-27T09:02:53.228Z,34.70
2018-03-27T09:05:20.707Z,33.57
2018-03-27T09:07:48.146Z,33.10
2018-03-27T09:10:15.616Z,33.17
2018-03-27T09:12:43.985Z,26.00
2018-03-27T09:15:11.447Z,26.77
2018-03-27T09:17:38.905Z,23.83
2018-03-27T09:20:07.143Z,24.40
2018-03-27T09:22:34.624Z,24.53
2018-03-27T09:25:02.078Z,24.80
2018-03-27T09:27:29.566Z,24.37
2018-03-27T09:29:57.022Z,23.70
2018-03-27T09:32:24.500Z,24.37
2018-03-27T09:34:51.925Z,25.10
2018-03-27T09:37:19.388Z,24.43
2018-03-27T09:39:46.864Z,24.07
2018-03-27T09:42:14.332Z,23.47
2018-03-27T09:44:41.812Z,22.63
2018-03-27T09:47:09.285Z,21.63
2018-03-27T09:49:36.771Z,23.07
2018-03-27T09:52:04.234Z,21.77
2018-03-27T09:54:31.683Z,21.27
2018-03-27T09:56:59.166Z,19.30
2018-03-27T09:59:26.622Z,20.23
2018-03-27T10:01:54.087Z,19.53
2018-03-27T10:04:22.336Z,21.20
2018-03-27T10:06:49.790Z,19.00
2018-03-27T10:09:17.246Z,17.93
2018-03-27T10:11:44.735Z,12.90
2018-03-27T10:14:12.199Z,12.80
2018-03-27T10:16:39.646Z,12.30
2018-03-27T10:19:07.118Z,12.50
2018-03-27T10:21:34.570Z,12.70
2018-03-27T10:24:02.048Z,11.90
2018-03-27T10:26:29.566Z,11.10
2018-03-27T10:28:57.008Z,11.73
2018-03-27T10:31:24.464Z,12.43
2018-03-27T10:33:51.941Z,13.10
2018-03-27T10:36:19.397Z,12.37
2018-03-27T10:38:47.089Z,12.20
2018-03-27T10:41:14.530Z,13.70
2018-03-27T10:43:42.018Z,14.60
2018-03-27T10:46:09.479Z,15.57
2018-03-27T10:48:36.957Z,14.90
2018-03-27T10:51:04.412Z,14.20
2018-03-27T10:53:31.868Z,14.83
2018-03-27T10:55:59.341Z,12.63
2018-03-27T10:58:26.797Z,13.90
2018-03-27T11:00:55.041Z,12.87
2018-03-27T11:03:22.504Z,13.07
2018-03-27T11:05:50.002Z,13.77
2018-03-27T11:08:17.449Z,14.60
2018-03-27T11:10:44.912Z,14.43
2018-03-27T11:13:12.360Z,13.80
2018-03-27T11:15:39.892Z,14.07
2018-03-27T11:18:07.304Z,13.67
2018-03-27T11:20:34.776Z,14.63
2018-03-27T11:23:02.583Z,14.30
2018-03-27T11:25:30.056Z,14.43
2018-03-27T11:27:57.545Z,14.33
2018-03-27T11:30:24.992Z,14.43
2018-03-27T11:32:52.442Z,13.80
2018-03-27T11:35:19.950Z,13.03
2018-03-27T11:37:47.412Z,13.60
2018-03-27T11:40:14.873Z,12.30
2018-03-27T11:42:42.347Z,15.03
2018-03-27T11:45:09.814Z,14.23
2018-03-27T11:47:37.265Z,14.13
2018-03-27T11:50:04.768Z,14.97
2018-03-27T11:52:33.003Z,14.77
2018-03-27T11:55:00.476Z,13.23
2018-03-27T11:57:27.936Z,13.50
2018-03-27T11:59:55.404Z,13.20
2018-03-27T12:02:22.868Z,13.80
2018-03-27T12:04:50.341Z,14.63
2018-03-27T12:07:17.806Z,14.97
2018-03-27T12:09:45.259Z,14.87
2018-03-27T12:12:13.496Z,14.33
2018-03-27T12:14:40.950Z,14.63
2018-03-27T12:17:08.424Z,15.93
2018-03-27T12:19:35.874Z,16.07
2018-03-27T12:22:03.387Z,16.03
2018-03-27T12:24:30.842Z,16.40
2018-03-27T12:26:58.313Z,16.47
2018-03-27T12:29:25.787Z,16.20
2018-03-27T12:31:53.232Z,17.67
2018-03-27T12:34:20.707Z,17.20
2018-03-27T12:36:48.176Z,16.37
2018-03-27T12:39:15.646Z,17.87
2018-03-27T12:41:43.136Z,16.83
2018-03-27T12:44:10.598Z,17.60
2018-03-27T12:46:38.068Z,18.27
2018-03-27T12:49:05.525Z,16.97
2018-03-27T12:51:33.006Z,18.97
2018-03-27T12:54:00.490Z,18.80
2018-03-27T12:56:27.958Z,16.90
2018-03-27T12:58:55.442Z,18.23
2018-03-27T13:01:22.902Z,18.90
2018-03-27T13:03:50.358Z,18.13
2018-03-27T13:06:17.837Z,19.97
2018-03-27T13:08:45.294Z,19.20
2018-03-27T13:11:12.750Z,19.40
2018-03-27T13:13:40.220Z,20.37
2018-03-27T13:16:07.705Z,18.70
2018-03-27T13:18:35.159Z,18.90
2018-03-27T13:21:02.613Z,18.90
2018-03-27T13:23:30.097Z,20.50
2018-03-27T13:25:58.293Z,22.37
2018-03-27T13:28:26.457Z,23.13
2018-03-27T13:30:53.901Z,20.00
2018-03-27T13:33:22.149Z,21.37
2018-03-27T13:35:49.598Z,21.60
2018-03-27T13:38:17.068Z,22.20
2018-03-27T13:40:44.543Z,18.73
2018-03-27T13:43:11.986Z,21.57
2018-03-27T13:45:39.465Z,21.57
2018-03-27T13:48:06.924Z,22.00
2018-03-27T13:50:34.391Z,20.40
2018-03-27T13:53:01.874Z,21.20
2018-03-27T13:55:29.343Z,20.40
2018-03-27T13:57:56.805Z,19.87
2018-03-27T14:00:24.329Z,21.07
2018-03-27T14:02:51.801Z,21.50
2018-03-27T14:05:19.253Z,20.27
2018-03-27T14:07:46.732Z,21.33
2018-03-27T14:10:14.188Z,20.60
2018-03-27T14:12:41.640Z,21.20
2018-03-27T14:15:09.199Z,21.17
2018-03-27T14:17:36.671Z,21.93
2018-03-27T14:20:04.125Z,21.50
2018-03-27T14:22:31.600Z,21.70
2018-03-27T14:24:59.156Z,21.83
2018-03-27T14:27:27.376Z,22.53
2018-03-27T14:29:54.857Z,23.50
2018-03-27T14:32:22.309Z,24.40
2018-03-27T14:34:49.792Z,23.90
2018-03-27T14:37:17.252Z,23.20
2018-03-27T14:39:44.717Z,22.97
2018-03-27T14:42:12.186Z,23.83
2018-03-27T14:44:39.644Z,24.33
2018-03-27T14:47:07.110Z,22.53
2018-03-27T14:49:34.601Z,22.40
2018-03-27T14:52:02.060Z,24.20
2018-03-27T14:54:29.517Z,24.70
2018-03-27T14:56:56.996Z,25.73
2018-03-27T14:59:24.463Z,24.30
2018-03-27T15:01:51.917Z,26.77
2018-03-27T15:04:20.164Z,26.80
2018-03-27T15:06:47.632Z,25.03
2018-03-27T15:09:15.081Z,26.50
2018-03-27T15:11:42.545Z,25.77
2018-03-27T15:14:10.000Z,25.93
2018-03-27T15:16:37.466Z,28.33
2018-03-27T15:19:04.913Z,27.50
2018-03-27T15:21:33.148Z,27.53
2018-03-27T15:24:00.614Z,24.53
2018-03-27T15:26:28.086Z,27.17
2018-03-27T15:28:55.535Z,25.70
2018-03-27T15:31:23.009Z,27.90
2018-03-27T15:33:50.454Z,28.80
2018-03-27T15:36:18.693Z,30.67
2018-03-27T15:38:46.139Z,28.20
2018-03-27T15:41:13.605Z,28.50
2018-03-27T15:43:41.075Z,29.17
2018-03-27T15:46:08.552Z,27.57
2018-03-27T15:48:36.002Z,30.20
2018-03-27T15:51:03.439Z,28.27
2018-03-27T15:53:30.952Z,29.20
2018-03-27T15:55:58.396Z,30.60
2018-03-27T15:58:26.633Z,32.90
2018-03-27T16:00:54.121Z,30.27
2018-03-27T16:03:21.623Z,30.90
2018-03-27T16:05:49.052Z,29.87
2018-03-27T16:08:16.530Z,32.70
2018-03-27T16:10:43.992Z,31.03
2018-03-27T16:13:11.471Z,30.17
2018-03-27T16:15:38.968Z,31.27
2018-03-27T16:18:06.461Z,32.37
2018-03-27T16:20:33.948Z,31.23
2018-03-27T16:23:01.373Z,33.00
2018-03-27T16:25:28.827Z,32.70
2018-03-27T16:27:56.301Z,30.83
2018-03-27T16:30:23.745Z,32.80
2018-03-27T16:32:51.209Z,32.90
2018-03-27T16:35:18.699Z,34.20
2018-03-27T16:37:46.142Z,32.83
2018-03-27T16:40:14.384Z,33.93
2018-03-27T16:42:41.849Z,32.93
2018-03-27T16:45:09.298Z,34.27
2018-03-27T16:47:36.766Z,34.30
2018-03-27T16:50:04.221Z,34.73
2018-03-27T16:52:31.689Z,32.40
2018-03-27T16:54:59.136Z,34.60
2018-03-27T16:57:27.376Z,35.20
2018-03-27T16:59:54.851Z,32.63
2018-03-27T17:02:22.311Z,33.93
2018-03-27T17:04:50.546Z,33.07
2018-03-27T17:07:18.017Z,32.10
2018-03-27T17:09:57.269Z,34.00
2018-03-27T17:12:25.509Z,31.70
2018-03-27T17:15:06.579Z,32.60
2018-03-27T17:17:34.064Z,30.70
2018-03-27T17:20:01.531Z,30.53
2018-03-27T17:22:29.004Z,29.30
2018-03-27T17:24:56.462Z,31.23
2018-03-27T17:27:23.956Z,29.00
2018-03-27T17:29:51.416Z,30.10
2018-03-27T17:32:18.870Z,29.37
2018-03-27T17:34:46.345Z,28.30
2018-03-27T17:37:13.867Z,30.00
2018-03-27T17:39:41.270Z,25.60
2018-03-27T17:42:08.792Z,27.30
2018-03-27T17:44:37.050Z,25.70
2018-03-27T17:47:05.275Z,23.10
2018-03-27T17:49:33.648Z,22.70
2018-03-27T17:52:01.133Z,21.70
2018-03-27T17:54:28.746Z,20.10
2018-03-27T17:56:56.955Z,21.23
2018-03-27T17:59:24.424Z,18.70
2018-03-27T18:01:51.921Z,17.77
2018-03-27T18:04:19.392Z,18.63
2018-03-27T18:06:46.848Z,16.50
2018-03-27T18:09:14.337Z,17.00
2018-03-27T18:11:41.792Z,17.03
2018-03-27T18:14:09.252Z,18.23
2018-03-27T18:16:36.728Z,17.00
2018-03-27T18:19:04.196Z,17.37
2018-03-27T18:21:31.647Z,16.87
2018-03-27T18:23:59.142Z,17.10
2018-03-27T18:26:26.580Z,18.43
2018-03-27T18:28:54.020Z,16.47
2018-03-27T18:31:21.525Z,14.97
2018-03-27T18:33:48.974Z,16.43
2018-03-27T18:36:16.462Z,15.33
2018-03-27T18:38:43.914Z,14.57
2018-03-27T18:41:11.390Z,13.07
2018-03-27T18:43:38.959Z,15.20
2018-03-27T18:46:06.414Z,16.23
2018-03-27T18:48:34.721Z,15.80
2018-03-27T18:51:02.176Z,15.60
2018-03-27T18:53:30.445Z,15.50
2018-03-27T18:55:57.902Z,16.67
2018-03-27T18:58:25.356Z,17.37
2018-03-27T19:00:52.824Z,16.90
2018-03-27T19:03:20.289Z,17.17
2018-03-27T19:05:47.756Z,17.33
2018-03-27T19:08:15.211Z,18.80
2018-03-27T19:10:42.727Z,18.27
2018-03-27T19:13:10.161Z,16.67
2018-03-27T19:15:37.886Z,17.93
2018-03-27T19:18:06.113Z,33.90
2018-03-27T19:20:33.687Z,20.87
2018-03-27T19:23:01.177Z,22.70
2018-03-27T19:25:28.631Z,20.73
2018-03-27T19:27:56.121Z,25.57
2018-03-27T19:30:23.572Z,18.00
2018-03-27T19:32:51.040Z,21.97
2018-03-27T19:35:18.497Z,18.73
2018-03-27T19:37:45.976Z,21.70
2018-03-27T19:40:13.422Z,21.53
2018-03-27T19:42:40.879Z,20.80
2018-03-27T19:45:08.346Z,20.03
2018-03-27T19:47:36.601Z,21.77
2018-03-27T19:50:04.045Z,26.00
2018-03-27T19:52:31.510Z,25.60
2018-03-27T19:54:59.006Z,24.60
2018-03-27T19:57:26.477Z,22.57
2018-03-27T19:59:53.941Z,22.23
2018-03-27T20:02:21.397Z,23.30
2018-03-27T20:04:48.873Z,23.60
2018-03-27T20:07:16.327Z,24.10
2018-03-27T20:09:43.796Z,23.67
2018-03-27T20:12:11.346Z,25.00
2018-03-27T20:14:38.851Z,24.70
2018-03-27T20:17:06.300Z,23.10
2018-03-27T20:19:33.761Z,23.93
2018-03-27T20:22:01.288Z,24.20
2018-03-27T20:24:28.672Z,25.17
2018-03-27T20:26:56.914Z,24.93
2018-03-27T20:29:24.357Z,24.47
2018-03-27T20:31:51.818Z,25.10
2018-03-27T20:34:19.292Z,24.10
2018-03-27T20:36:46.770Z,24.37
2018-03-27T20:39:14.248Z,23.13
2018-03-27T20:41:41.719Z,23.50
2018-03-27T20:44:09.170Z,25.10
2018-03-27T20:46:36.634Z,25.37
2018-03-27T20:49:04.900Z,25.60
2018-03-27T20:51:32.330Z,26.80
2018-03-27T20:53:59.830Z,25.40
2018-03-27T20:56:27.282Z,26.23
2018-03-27T20:58:54.746Z,26.80
2018-03-27T21:01:22.228Z,27.37
2018-03-27T21:03:49.699Z,26.80
2018-03-27T21:06:17.178Z,27.00
2018-03-27T21:08:44.633Z,26.63
2018-03-27T21:11:12.092Z,28.50
2018-03-27T21:13:39.559Z,27.50
2018-03-27T21:16:07.020Z,29.87
2018-03-27T21:18:34.501Z,27.97
2018-03-27T21:21:01.970Z,30.60
2018-03-27T21:23:29.440Z,29.00
2018-03-27T21:25:56.908Z,31.30
2018-03-27T21:28:24.420Z,30.07
2018-03-27T21:30:52.657Z,31.47
2018-03-27T21:33:20.105Z,30.33
2018-03-27T21:35:47.626Z,30.30
2018-03-27T21:38:15.088Z,29.90
2018-03-27T21:40:43.970Z,33.03
2018-03-27T21:43:11.428Z,31.30
2018-03-27T21:45:38.914Z,32.07
2018-03-27T21:48:06.365Z,29.67
2018-03-27T21:50:33.823Z,30.90
2018-03-27T21:53:01.285Z,32.77
2018-03-27T21:55:28.741Z,33.40
2018-03-27T21:57:56.974Z,32.87
2018-03-27T22:00:24.456Z,31.60
2018-03-27T22:02:51.900Z,32.43
2018-03-27T22:05:19.374Z,32.83
2018-03-27T22:07:46.849Z,34.70
2018-03-27T22:10:14.304Z,36.47
2018-03-27T22:12:41.781Z,34.83
2018-03-27T22:15:09.230Z,33.13
2018-03-27T22:17:36.805Z,33.70
2018-03-27T22:20:04.253Z,35.50
2018-03-27T22:22:32.501Z,34.83
2018-03-27T22:24:59.970Z,35.20
2018-03-27T22:27:27.431Z,36.50
2018-03-27T22:29:54.901Z,33.70
2018-03-27T22:32:22.360Z,34.33
2018-03-27T22:34:49.830Z,35.27
2018-03-27T22:37:17.276Z,36.47
2018-03-27T22:39:44.746Z,36.23
2018-03-27T22:42:12.201Z,37.50
2018-03-27T22:44:40.454Z,34.47
2018-03-27T22:47:07.926Z,37.87
2018-03-27T22:49:35.372Z,38.27
2018-03-27T22:52:02.878Z,37.90
2018-03-27T22:54:30.329Z,39.40
2018-03-27T22:56:57.796Z,37.90
2018-03-27T22:59:25.252Z,38.00
2018-03-27T23:01:53.469Z,38.80
2018-03-27T23:04:20.944Z,37.67
2018-03-27T23:06:48.386Z,39.80
2018-03-27T23:09:15.853Z,39.77
2018-03-27T23:11:43.333Z,39.40
2018-03-27T23:14:10.793Z,42.47
2018-03-27T23:16:38.245Z,39.63
2018-03-27T23:19:05.704Z,40.60
2018-03-27T23:21:33.157Z,41.90
2018-03-27T23:24:00.610Z,40.23
2018-03-27T23:26:28.833Z,40.07
2018-03-27T23:28:56.285Z,38.97
2018-03-27T23:31:23.756Z,39.67
2018-03-27T23:33:51.210Z,41.17
2018-03-27T23:36:19.433Z,42.07
2018-03-27T23:38:46.894Z,42.03
2018-03-27T23:41:14.352Z,38.87
2018-03-27T23:43:41.813Z,37.60
2018-03-27T23:46:09.296Z,39.97
2018-03-27T23:48:36.740Z,37.93
2018-03-27T23:51:04.220Z,38.50
2018-03-27T23:53:32.564Z,35.93
2018-03-27T23:56:00.117Z,37.30
2018-03-27T23:58:27.557Z,39.50
